sensor_id;sensor_type;location;lat;lon;timestamp;P1;durP1;ratioP1;P2;durP2;ratioP2
43990;SDS011;29654;50.784;20.604;2023-04-24T00:00:59;11.68;;;8.98;;
43990;SDS011;29654;50.784;20.604;2023-04-24T00:06:02;11.45;;;9.82;;
43990;SDS011;29654;50.784;20.604;2023-04-24T00:11:07;9.93;;;8.77;;
43990;SDS011;29654;50.784;20.604;2023-04-24T00:16:10;8.27;;;7.15;;
43990;SDS011;29654;50.784;20.604;2023-04-24T00:21:13;11.40;;;9.27;;
43990;SDS011;29654;50.784;20.604;2023-04-24T00:26:17;9.68;;;7.55;;
43990;SDS011;29654;50.784;20.604;2023-04-24T00:31:20;10.55;;;9.45;;
43990;SDS011;29654;50.784;20.604;2023-04-24T00:36:23;11.82;;;10.02;;
43990;SDS011;29654;50.784;20.604;2023-04-24T00:41:27;9.60;;;8.60;;
43990;SDS011;29654;50.784;20.604;2023-04-24T00:46:30;9.68;;;8.35;;
43990;SDS011;29654;50.784;20.604;2023-04-24T00:51:33;11.95;;;8.57;;
43990;SDS011;29654;50.784;20.604;2023-04-24T00:56:38;10.77;;;9.32;;
43990;SDS011;29654;50.784;20.604;2023-04-24T01:01:44;9.07;;;6.80;;
43990;SDS011;29654;50.784;20.604;2023-04-24T01:06:47;9.80;;;8.55;;
43990;SDS011;29654;50.784;20.604;2023-04-24T01:11:53;10.00;;;8.23;;
43990;SDS011;29654;50.784;20.604;2023-04-24T01:16:56;10.00;;;8.32;;
43990;SDS011;29654;50.784;20.604;2023-04-24T01:22:01;10.13;;;8.63;;
43990;SDS011;29654;50.784;20.604;2023-04-24T01:27:06;10.57;;;9.48;;
43990;SDS011;29654;50.784;20.604;2023-04-24T01:32:10;8.10;;;7.30;;
43990;SDS011;29654;50.784;20.604;2023-04-24T01:37:14;10.30;;;8.95;;
43990;SDS011;29654;50.784;20.604;2023-04-24T01:42:18;10.52;;;7.70;;
43990;SDS011;29654;50.784;20.604;2023-04-24T01:47:21;8.80;;;7.90;;
43990;SDS011;29654;50.784;20.604;2023-04-24T01:52:24;9.35;;;8.45;;
43990;SDS011;29654;50.784;20.604;2023-04-24T01:57:30;10.20;;;8.48;;
43990;SDS011;29654;50.784;20.604;2023-04-24T02:02:34;8.68;;;7.85;;
43990;SDS011;29654;50.784;20.604;2023-04-24T02:07:37;10.18;;;8.43;;
43990;SDS011;29654;50.784;20.604;2023-04-24T02:12:41;10.07;;;8.82;;
43990;SDS011;29654;50.784;20.604;2023-04-24T02:17:44;11.43;;;8.80;;
43990;SDS011;29654;50.784;20.604;2023-04-24T02:22:46;11.68;;;8.52;;
43990;SDS011;29654;50.784;20.604;2023-04-24T02:27:50;11.63;;;8.75;;
43990;SDS011;29654;50.784;20.604;2023-04-24T02:32:53;11.15;;;9.10;;
43990;SDS011;29654;50.784;20.604;2023-04-24T02:37:55;8.93;;;8.02;;
43990;SDS011;29654;50.784;20.604;2023-04-24T02:42:59;7.72;;;6.10;;
43990;SDS011;29654;50.784;20.604;2023-04-24T02:48:02;9.55;;;7.78;;
43990;SDS011;29654;50.784;20.604;2023-04-24T02:53:05;9.60;;;8.52;;
43990;SDS011;29654;50.784;20.604;2023-04-24T02:58:09;9.88;;;8.88;;
43990;SDS011;29654;50.784;20.604;2023-04-24T03:03:13;10.30;;;8.73;;
43990;SDS011;29654;50.784;20.604;2023-04-24T03:08:16;11.90;;;9.05;;
43990;SDS011;29654;50.784;20.604;2023-04-24T03:13:20;8.88;;;7.30;;
43990;SDS011;29654;50.784;20.604;2023-04-24T03:18:23;9.98;;;8.98;;
43990;SDS011;29654;50.784;20.604;2023-04-24T03:23:26;9.85;;;8.30;;
43990;SDS011;29654;50.784;20.604;2023-04-24T03:28:30;9.52;;;8.18;;
43990;SDS011;29654;50.784;20.604;2023-04-24T03:33:37;9.60;;;8.00;;
43990;SDS011;29654;50.784;20.604;2023-04-24T03:38:41;12.40;;;10.15;;
43990;SDS011;29654;50.784;20.604;2023-04-24T03:44:00;10.60;;;9.45;;
43990;SDS011;29654;50.784;20.604;2023-04-24T03:49:04;9.98;;;9.00;;
43990;SDS011;29654;50.784;20.604;2023-04-24T03:54:12;10.02;;;8.40;;
43990;SDS011;29654;50.784;20.604;2023-04-24T03:59:17;12.40;;;10.05;;
43990;SDS011;29654;50.784;20.604;2023-04-24T04:04:24;10.00;;;8.93;;
43990;SDS011;29654;50.784;20.604;2023-04-24T04:09:27;11.45;;;10.18;;
43990;SDS011;29654;50.784;20.604;2023-04-24T04:14:31;10.23;;;9.18;;
43990;SDS011;29654;50.784;20.604;2023-04-24T04:19:34;10.60;;;8.73;;
43990;SDS011;29654;50.784;20.604;2023-04-24T04:24:37;10.82;;;9.07;;
43990;SDS011;29654;50.784;20.604;2023-04-24T04:29:43;10.77;;;9.35;;
43990;SDS011;29654;50.784;20.604;2023-04-24T04:34:48;10.30;;;9.07;;
43990;SDS011;29654;50.784;20.604;2023-04-24T04:39:54;9.13;;;8.23;;
43990;SDS011;29654;50.784;20.604;2023-04-24T04:45:02;9.95;;;8.27;;
43990;SDS011;29654;50.784;20.604;2023-04-24T04:50:18;9.23;;;8.02;;
43990;SDS011;29654;50.784;20.604;2023-04-24T04:55:23;10.52;;;8.40;;
43990;SDS011;29654;50.784;20.604;2023-04-24T05:00:59;9.00;;;8.10;;
43990;SDS011;29654;50.784;20.604;2023-04-24T05:06:07;8.43;;;7.63;;
43990;SDS011;29654;50.784;20.604;2023-04-24T05:11:12;8.00;;;7.30;;
43990;SDS011;29654;50.784;20.604;2023-04-24T05:16:17;7.78;;;6.97;;
43990;SDS011;29654;50.784;20.604;2023-04-24T05:21:21;7.35;;;6.75;;
43990;SDS011;29654;50.784;20.604;2023-04-24T05:26:26;7.18;;;6.43;;
43990;SDS011;29654;50.784;20.604;2023-04-24T05:31:32;7.20;;;6.45;;
43990;SDS011;29654;50.784;20.604;2023-04-24T05:36:35;6.40;;;5.80;;
43990;SDS011;29654;50.784;20.604;2023-04-24T05:41:38;7.47;;;6.78;;
43990;SDS011;29654;50.784;20.604;2023-04-24T05:46:42;6.68;;;5.93;;
43990;SDS011;29654;50.784;20.604;2023-04-24T05:51:45;7.28;;;6.10;;
43990;SDS011;29654;50.784;20.604;2023-04-24T05:56:50;6.75;;;6.05;;
43990;SDS011;29654;50.784;20.604;2023-04-24T06:02:06;6.00;;;5.47;;
43990;SDS011;29654;50.784;20.604;2023-04-24T06:07:10;8.57;;;7.47;;
43990;SDS011;29654;50.784;20.604;2023-04-24T06:12:14;14.88;;;10.55;;
43990;SDS011;29654;50.784;20.604;2023-04-24T06:17:34;6.75;;;6.07;;
43990;SDS011;29654;50.784;20.604;2023-04-24T06:22:37;6.70;;;6.10;;
43990;SDS011;29654;50.784;20.604;2023-04-24T06:27:40;5.95;;;5.45;;
43990;SDS011;29654;50.784;20.604;2023-04-24T06:32:44;6.00;;;5.13;;
43990;SDS011;29654;50.784;20.604;2023-04-24T06:37:49;5.90;;;5.40;;
43990;SDS011;29654;50.784;20.604;2023-04-24T06:42:52;5.32;;;4.93;;
43990;SDS011;29654;50.784;20.604;2023-04-24T06:47:56;5.75;;;4.80;;
43990;SDS011;29654;50.784;20.604;2023-04-24T06:52:59;4.70;;;4.30;;
43990;SDS011;29654;50.784;20.604;2023-04-24T06:58:01;5.10;;;4.65;;
43990;SDS011;29654;50.784;20.604;2023-04-24T07:03:05;4.32;;;4.03;;
43990;SDS011;29654;50.784;20.604;2023-04-24T07:08:08;4.68;;;4.28;;
43990;SDS011;29654;50.784;20.604;2023-04-24T07:13:12;4.43;;;4.03;;
43990;SDS011;29654;50.784;20.604;2023-04-24T07:18:16;5.60;;;4.00;;
43990;SDS011;29654;50.784;20.604;2023-04-24T07:23:19;4.57;;;4.18;;
43990;SDS011;29654;50.784;20.604;2023-04-24T07:28:21;7.22;;;4.43;;
43990;SDS011;29654;50.784;20.604;2023-04-24T07:33:26;4.15;;;3.67;;
43990;SDS011;29654;50.784;20.604;2023-04-24T07:38:29;4.35;;;4.05;;
43990;SDS011;29654;50.784;20.604;2023-04-24T07:43:31;5.35;;;4.85;;
43990;SDS011;29654;50.784;20.604;2023-04-24T07:48:35;3.90;;;3.50;;
43990;SDS011;29654;50.784;20.604;2023-04-24T07:53:38;3.78;;;3.45;;
43990;SDS011;29654;50.784;20.604;2023-04-24T07:58:41;3.67;;;3.25;;
43990;SDS011;29654;50.784;20.604;2023-04-24T08:03:45;4.30;;;3.70;;
43990;SDS011;29654;50.784;20.604;2023-04-24T08:08:47;3.55;;;3.25;;
43990;SDS011;29654;50.784;20.604;2023-04-24T08:13:50;2.78;;;2.47;;
43990;SDS011;29654;50.784;20.604;2023-04-24T08:18:54;2.85;;;2.58;;
43990;SDS011;29654;50.784;20.604;2023-04-24T08:23:56;2.58;;;2.38;;
43990;SDS011;29654;50.784;20.604;2023-04-24T08:28:59;3.15;;;2.70;;
43990;SDS011;29654;50.784;20.604;2023-04-24T08:34:03;2.47;;;2.28;;
43990;SDS011;29654;50.784;20.604;2023-04-24T08:39:06;3.70;;;2.78;;
43990;SDS011;29654;50.784;20.604;2023-04-24T08:44:08;3.75;;;2.60;;
43990;SDS011;29654;50.784;20.604;2023-04-24T08:49:13;2.03;;;1.92;;
43990;SDS011;29654;50.784;20.604;2023-04-24T08:54:17;2.88;;;2.67;;
43990;SDS011;29654;50.784;20.604;2023-04-24T08:59:20;2.70;;;2.50;;
43990;SDS011;29654;50.784;20.604;2023-04-24T09:04:25;3.90;;;2.20;;
43990;SDS011;29654;50.784;20.604;2023-04-24T09:09:29;2.40;;;2.20;;
43990;SDS011;29654;50.784;20.604;2023-04-24T09:14:34;3.60;;;2.95;;
43990;SDS011;29654;50.784;20.604;2023-04-24T09:19:41;3.00;;;2.42;;
43990;SDS011;29654;50.784;20.604;2023-04-24T09:24:44;2.90;;;2.60;;
43990;SDS011;29654;50.784;20.604;2023-04-24T09:29:53;3.80;;;2.55;;
43990;SDS011;29654;50.784;20.604;2023-04-24T09:35:10;2.60;;;2.38;;
43990;SDS011;29654;50.784;20.604;2023-04-24T09:40:15;3.78;;;2.50;;
43990;SDS011;29654;50.784;20.604;2023-04-24T09:45:20;4.30;;;2.85;;
43990;SDS011;29654;50.784;20.604;2023-04-24T09:50:24;2.88;;;2.67;;
43990;SDS011;29654;50.784;20.604;2023-04-24T09:55:26;2.90;;;2.70;;
43990;SDS011;29654;50.784;20.604;2023-04-24T10:00:30;2.80;;;2.60;;
43990;SDS011;29654;50.784;20.604;2023-04-24T10:05:36;6.00;;;3.03;;
43990;SDS011;29654;50.784;20.604;2023-04-24T10:10:40;3.67;;;2.72;;
43990;SDS011;29654;50.784;20.604;2023-04-24T10:15:44;4.60;;;2.90;;
43990;SDS011;29654;50.784;20.604;2023-04-24T10:20:49;2.88;;;2.67;;
43990;SDS011;29654;50.784;20.604;2023-04-24T10:25:55;3.67;;;3.33;;
43990;SDS011;29654;50.784;20.604;2023-04-24T10:30:58;2.72;;;2.53;;
43990;SDS011;29654;50.784;20.604;2023-04-24T10:36:03;3.88;;;3.08;;
43990;SDS011;29654;50.784;20.604;2023-04-24T10:41:07;2.78;;;2.55;;
43990;SDS011;29654;50.784;20.604;2023-04-24T10:46:16;2.92;;;2.70;;
43990;SDS011;29654;50.784;20.604;2023-04-24T10:51:24;3.80;;;2.90;;
43990;SDS011;29654;50.784;20.604;2023-04-24T10:56:46;4.55;;;3.05;;
43990;SDS011;29654;50.784;20.604;2023-04-24T11:01:52;3.53;;;3.22;;
43990;SDS011;29654;50.784;20.604;2023-04-24T11:06:57;3.58;;;2.75;;
43990;SDS011;29654;50.784;20.604;2023-04-24T11:12:03;2.63;;;2.42;;
43990;SDS011;29654;50.784;20.604;2023-04-24T11:17:09;3.40;;;3.13;;
43990;SDS011;29654;50.784;20.604;2023-04-24T11:22:33;4.82;;;2.67;;
43990;SDS011;29654;50.784;20.604;2023-04-24T11:27:38;2.80;;;2.45;;
43990;SDS011;29654;50.784;20.604;2023-04-24T11:32:43;4.47;;;2.35;;
43990;SDS011;29654;50.784;20.604;2023-04-24T11:37:51;3.08;;;2.70;;
43990;SDS011;29654;50.784;20.604;2023-04-24T11:42:54;3.28;;;2.80;;
43990;SDS011;29654;50.784;20.604;2023-04-24T11:47:57;3.05;;;2.85;;
43990;SDS011;29654;50.784;20.604;2023-04-24T11:53:01;3.10;;;2.80;;
43990;SDS011;29654;50.784;20.604;2023-04-24T11:58:05;2.75;;;2.53;;
43990;SDS011;29654;50.784;20.604;2023-04-24T12:03:08;3.50;;;2.78;;
43990;SDS011;29654;50.784;20.604;2023-04-24T12:08:13;2.97;;;2.78;;
43990;SDS011;29654;50.784;20.604;2023-04-24T12:13:29;2.92;;;2.45;;
43990;SDS011;29654;50.784;20.604;2023-04-24T12:18:32;2.90;;;2.70;;
43990;SDS011;29654;50.784;20.604;2023-04-24T12:23:36;2.85;;;2.55;;
43990;SDS011;29654;50.784;20.604;2023-04-24T12:28:39;2.53;;;2.33;;
43990;SDS011;29654;50.784;20.604;2023-04-24T12:33:42;2.70;;;2.50;;
43990;SDS011;29654;50.784;20.604;2023-04-24T12:38:46;2.95;;;2.47;;
43990;SDS011;29654;50.784;20.604;2023-04-24T12:43:54;3.85;;;2.55;;
43990;SDS011;29654;50.784;20.604;2023-04-24T12:48:57;2.60;;;2.40;;
43990;SDS011;29654;50.784;20.604;2023-04-24T12:54:01;2.85;;;2.65;;
43990;SDS011;29654;50.784;20.604;2023-04-24T12:59:05;2.42;;;2.33;;
43990;SDS011;29654;50.784;20.604;2023-04-24T13:04:08;2.70;;;2.50;;
43990;SDS011;29654;50.784;20.604;2023-04-24T13:09:11;3.70;;;3.40;;
43990;SDS011;29654;50.784;20.604;2023-04-24T13:14:14;2.90;;;2.58;;
43990;SDS011;29654;50.784;20.604;2023-04-24T13:19:17;2.90;;;2.58;;
43990;SDS011;29654;50.784;20.604;2023-04-24T13:24:21;3.08;;;2.50;;
43990;SDS011;29654;50.784;20.604;2023-04-24T13:29:25;3.28;;;2.97;;
43990;SDS011;29654;50.784;20.604;2023-04-24T13:34:28;2.63;;;2.42;;
43990;SDS011;29654;50.784;20.604;2023-04-24T13:39:36;4.07;;;2.33;;
43990;SDS011;29654;50.784;20.604;2023-04-24T13:44:38;3.72;;;2.90;;
43990;SDS011;29654;50.784;20.604;2023-04-24T13:49:41;2.80;;;2.60;;
43990;SDS011;29654;50.784;20.604;2023-04-24T13:54:45;2.78;;;2.58;;
43990;SDS011;29654;50.784;20.604;2023-04-24T13:59:48;3.40;;;3.00;;
43990;SDS011;29654;50.784;20.604;2023-04-24T14:04:50;3.05;;;2.85;;
43990;SDS011;29654;50.784;20.604;2023-04-24T14:09:54;3.75;;;2.80;;
43990;SDS011;29654;50.784;20.604;2023-04-24T14:14:57;3.25;;;3.00;;
43990;SDS011;29654;50.784;20.604;2023-04-24T14:19:59;3.25;;;2.53;;
43990;SDS011;29654;50.784;20.604;2023-04-24T14:25:06;3.15;;;2.90;;
43990;SDS011;29654;50.784;20.604;2023-04-24T14:30:09;3.15;;;2.88;;
43990;SDS011;29654;50.784;20.604;2023-04-24T14:35:13;3.55;;;2.90;;
43990;SDS011;29654;50.784;20.604;2023-04-24T14:40:17;3.72;;;3.22;;
43990;SDS011;29654;50.784;20.604;2023-04-24T14:45:20;5.22;;;3.40;;
43990;SDS011;29654;50.784;20.604;2023-04-24T14:50:23;4.43;;;3.70;;
43990;SDS011;29654;50.784;20.604;2023-04-24T14:55:29;3.45;;;3.15;;
43990;SDS011;29654;50.784;20.604;2023-04-24T15:00:33;5.72;;;3.42;;
43990;SDS011;29654;50.784;20.604;2023-04-24T15:05:36;3.58;;;3.38;;
43990;SDS011;29654;50.784;20.604;2023-04-24T15:10:40;3.10;;;2.90;;
43990;SDS011;29654;50.784;20.604;2023-04-24T15:15:42;3.53;;;3.22;;
43990;SDS011;29654;50.784;20.604;2023-04-24T15:20:45;4.68;;;2.78;;
43990;SDS011;29654;50.784;20.604;2023-04-24T15:25:49;4.78;;;3.63;;
43990;SDS011;29654;50.784;20.604;2023-04-24T15:30:51;4.03;;;2.75;;
43990;SDS011;29654;50.784;20.604;2023-04-24T15:35:54;4.72;;;3.20;;
43990;SDS011;29654;50.784;20.604;2023-04-24T15:40:58;4.03;;;3.25;;
43990;SDS011;29654;50.784;20.604;2023-04-24T15:46:01;3.33;;;3.03;;
43990;SDS011;29654;50.784;20.604;2023-04-24T15:51:04;5.68;;;3.28;;
43990;SDS011;29654;50.784;20.604;2023-04-24T15:56:08;4.65;;;3.83;;
43990;SDS011;29654;50.784;20.604;2023-04-24T16:01:11;5.30;;;3.53;;
43990;SDS011;29654;50.784;20.604;2023-04-24T16:06:13;4.30;;;3.85;;
43990;SDS011;29654;50.784;20.604;2023-04-24T16:11:17;3.25;;;2.97;;
43990;SDS011;29654;50.784;20.604;2023-04-24T16:16:20;4.53;;;3.15;;
43990;SDS011;29654;50.784;20.604;2023-04-24T16:21:23;3.03;;;2.72;;
43990;SDS011;29654;50.784;20.604;2023-04-24T16:26:27;3.33;;;3.08;;
43990;SDS011;29654;50.784;20.604;2023-04-24T16:31:30;3.40;;;3.00;;
43990;SDS011;29654;50.784;20.604;2023-04-24T16:36:32;4.45;;;3.25;;
43990;SDS011;29654;50.784;20.604;2023-04-24T16:41:37;4.32;;;3.60;;
43990;SDS011;29654;50.784;20.604;2023-04-24T16:46:40;4.00;;;3.60;;
43990;SDS011;29654;50.784;20.604;2023-04-24T16:51:43;3.60;;;3.17;;
43990;SDS011;29654;50.784;20.604;2023-04-24T16:56:47;4.05;;;2.90;;
43990;SDS011;29654;50.784;20.604;2023-04-24T17:01:51;3.90;;;3.25;;
43990;SDS011;29654;50.784;20.604;2023-04-24T17:06:53;3.60;;;3.30;;
43990;SDS011;29654;50.784;20.604;2023-04-24T17:11:58;4.25;;;3.70;;
43990;SDS011;29654;50.784;20.604;2023-04-24T17:17:01;4.07;;;3.63;;
43990;SDS011;29654;50.784;20.604;2023-04-24T17:22:04;4.50;;;3.65;;
43990;SDS011;29654;50.784;20.604;2023-04-24T17:27:08;4.55;;;3.95;;
43990;SDS011;29654;50.784;20.604;2023-04-24T17:32:10;6.72;;;4.25;;
43990;SDS011;29654;50.784;20.604;2023-04-24T17:37:13;6.82;;;4.50;;
43990;SDS011;29654;50.784;20.604;2023-04-24T17:42:20;4.80;;;3.80;;
43990;SDS011;29654;50.784;20.604;2023-04-24T17:47:22;4.28;;;3.97;;
43990;SDS011;29654;50.784;20.604;2023-04-24T17:52:26;4.45;;;4.05;;
43990;SDS011;29654;50.784;20.604;2023-04-24T17:57:30;5.35;;;4.05;;
43990;SDS011;29654;50.784;20.604;2023-04-24T18:02:32;5.03;;;4.05;;
43990;SDS011;29654;50.784;20.604;2023-04-24T18:07:36;4.80;;;3.80;;
43990;SDS011;29654;50.784;20.604;2023-04-24T18:12:39;4.50;;;3.50;;
43990;SDS011;29654;50.784;20.604;2023-04-24T18:17:42;4.35;;;3.72;;
43990;SDS011;29654;50.784;20.604;2023-04-24T18:22:45;4.10;;;3.80;;
43990;SDS011;29654;50.784;20.604;2023-04-24T18:27:49;4.97;;;3.90;;
43990;SDS011;29654;50.784;20.604;2023-04-24T18:32:53;6.60;;;4.30;;
43990;SDS011;29654;50.784;20.604;2023-04-24T18:37:56;4.18;;;3.30;;
43990;SDS011;29654;50.784;20.604;2023-04-24T18:43:00;4.35;;;3.95;;
43990;SDS011;29654;50.784;20.604;2023-04-24T18:48:02;4.80;;;4.40;;
43990;SDS011;29654;50.784;20.604;2023-04-24T18:53:05;5.43;;;4.90;;
43990;SDS011;29654;50.784;20.604;2023-04-24T18:58:13;4.90;;;4.50;;
43990;SDS011;29654;50.784;20.604;2023-04-24T19:03:16;4.85;;;4.40;;
43990;SDS011;29654;50.784;20.604;2023-04-24T19:08:18;5.20;;;4.70;;
43990;SDS011;29654;50.784;20.604;2023-04-24T19:13:23;8.75;;;5.57;;
43990;SDS011;29654;50.784;20.604;2023-04-24T19:18:25;6.47;;;5.63;;
43990;SDS011;29654;50.784;20.604;2023-04-24T19:23:28;7.47;;;5.15;;
43990;SDS011;29654;50.784;20.604;2023-04-24T19:28:34;7.18;;;5.50;;
43990;SDS011;29654;50.784;20.604;2023-04-24T19:33:36;7.35;;;5.15;;
43990;SDS011;29654;50.784;20.604;2023-04-24T19:38:39;5.57;;;4.32;;
43990;SDS011;29654;50.784;20.604;2023-04-24T19:43:43;5.30;;;4.80;;
43990;SDS011;29654;50.784;20.604;2023-04-24T19:48:46;6.30;;;4.70;;
43990;SDS011;29654;50.784;20.604;2023-04-24T19:53:49;5.32;;;4.53;;
43990;SDS011;29654;50.784;20.604;2023-04-24T19:58:53;6.40;;;5.07;;
43990;SDS011;29654;50.784;20.604;2023-04-24T20:03:55;5.63;;;5.13;;
43990;SDS011;29654;50.784;20.604;2023-04-24T20:08:58;4.80;;;4.30;;
43990;SDS011;29654;50.784;20.604;2023-04-24T20:14:02;5.90;;;5.35;;
43990;SDS011;29654;50.784;20.604;2023-04-24T20:19:05;5.72;;;5.22;;
43990;SDS011;29654;50.784;20.604;2023-04-24T20:24:08;5.18;;;4.65;;
43990;SDS011;29654;50.784;20.604;2023-04-24T20:29:12;8.60;;;5.05;;
43990;SDS011;29654;50.784;20.604;2023-04-24T20:34:15;5.95;;;5.40;;
43990;SDS011;29654;50.784;20.604;2023-04-24T20:39:17;5.25;;;4.05;;
43990;SDS011;29654;50.784;20.604;2023-04-24T20:44:22;4.88;;;4.43;;
43990;SDS011;29654;50.784;20.604;2023-04-24T20:49:24;5.22;;;4.72;;
43990;SDS011;29654;50.784;20.604;2023-04-24T20:54:27;5.50;;;5.07;;
43990;SDS011;29654;50.784;20.604;2023-04-24T20:59:31;6.22;;;5.63;;
43990;SDS011;29654;50.784;20.604;2023-04-24T21:04:34;4.70;;;4.30;;
43990;SDS011;29654;50.784;20.604;2023-04-24T21:09:39;5.20;;;4.70;;
43990;SDS011;29654;50.784;20.604;2023-04-24T21:14:43;5.80;;;5.00;;
43990;SDS011;29654;50.784;20.604;2023-04-24T21:19:45;6.50;;;5.20;;
43990;SDS011;29654;50.784;20.604;2023-04-24T21:24:48;7.07;;;6.20;;
43990;SDS011;29654;50.784;20.604;2023-04-24T21:29:52;6.63;;;6.03;;
43990;SDS011;29654;50.784;20.604;2023-04-24T21:34:55;6.68;;;5.93;;
43990;SDS011;29654;50.784;20.604;2023-04-24T21:39:58;7.32;;;5.55;;
43990;SDS011;29654;50.784;20.604;2023-04-24T21:45:03;6.78;;;5.90;;
43990;SDS011;29654;50.784;20.604;2023-04-24T21:50:07;5.90;;;5.40;;
43990;SDS011;29654;50.784;20.604;2023-04-24T21:55:11;7.03;;;6.43;;
43990;SDS011;29654;50.784;20.604;2023-04-24T22:00:15;8.00;;;7.20;;
43990;SDS011;29654;50.784;20.604;2023-04-24T22:05:18;7.93;;;6.88;;
43990;SDS011;29654;50.784;20.604;2023-04-24T22:10:21;6.95;;;6.25;;
43990;SDS011;29654;50.784;20.604;2023-04-24T22:15:25;9.25;;;7.60;;
43990;SDS011;29654;50.784;20.604;2023-04-24T22:20:28;6.97;;;6.25;;
43990;SDS011;29654;50.784;20.604;2023-04-24T22:25:32;6.63;;;6.03;;
43990;SDS011;29654;50.784;20.604;2023-04-24T22:30:36;9.05;;;8.15;;
43990;SDS011;29654;50.784;20.604;2023-04-24T22:35:39;8.38;;;7.47;;
43990;SDS011;29654;50.784;20.604;2023-04-24T22:40:41;8.90;;;7.82;;
43990;SDS011;29654;50.784;20.604;2023-04-24T22:45:46;6.35;;;5.72;;
43990;SDS011;29654;50.784;20.604;2023-04-24T22:50:49;7.15;;;6.35;;
43990;SDS011;29654;50.784;20.604;2023-04-24T22:55:52;9.20;;;6.93;;
43990;SDS011;29654;50.784;20.604;2023-04-24T23:00:57;7.30;;;6.60;;
43990;SDS011;29654;50.784;20.604;2023-04-24T23:06:00;6.68;;;5.47;;
43990;SDS011;29654;50.784;20.604;2023-04-24T23:11:03;6.78;;;6.10;;
43990;SDS011;29654;50.784;20.604;2023-04-24T23:16:07;7.35;;;6.40;;
43990;SDS011;29654;50.784;20.604;2023-04-24T23:21:10;7.20;;;6.53;;
43990;SDS011;29654;50.784;20.604;2023-04-24T23:26:13;7.50;;;6.70;;
43990;SDS011;29654;50.784;20.604;2023-04-24T23:31:17;5.97;;;5.43;;
43990;SDS011;29654;50.784;20.604;2023-04-24T23:36:20;7.03;;;6.45;;
43990;SDS011;29654;50.784;20.604;2023-04-24T23:41:23;7.38;;;6.68;;
43990;SDS011;29654;50.784;20.604;2023-04-24T23:46:27;6.68;;;6.05;;
43990;SDS011;29654;50.784;20.604;2023-04-24T23:51:30;7.25;;;6.55;;
43990;SDS011;29654;50.784;20.604;2023-04-24T23:56:33;6.80;;;6.20;;
